sensor_id;sensor_type;location;lat;lon;timestamp;P1;P2;P0
73146;PMS7003;61345;48.922;2.244;2023-03-01T00:02:03;16.25;12.00;9.00
73146;PMS7003;61345;48.922;2.244;2023-03-01T00:04:29;13.50;9.50;7.00
73146;PMS7003;61345;48.922;2.244;2023-03-01T00:06:55;17.50;9.00;7.00
73146;PMS7003;61345;48.922;2.244;2023-03-01T00:09:21;17.25;11.50;8.50
73146;PMS7003;61345;48.922;2.244;2023-03-01T00:11:46;16.00;12.00;9.25
73146;PMS7003;61345;48.922;2.244;2023-03-01T00:14:13;15.25;13.00;9.00
73146;PMS7003;61345;48.922;2.244;2023-03-01T00:16:41;16.00;12.50;8.50
73146;PMS7003;61345;48.922;2.244;2023-03-01T00:19:08;13.25;9.25;8.00
73146;PMS7003;61345;48.922;2.244;2023-03-01T00:21:36;15.75;10.50;9.25
73146;PMS7003;61345;48.922;2.244;2023-03-01T00:24:02;14.75;11.00;9.00
73146;PMS7003;61345;48.922;2.244;2023-03-01T00:26:28;10.50;9.75;7.50
73146;PMS7003;61345;48.922;2.244;2023-03-01T00:28:53;15.75;10.00;7.00
73146;PMS7003;61345;48.922;2.244;2023-03-01T00:31:24;17.00;12.50;7.00
73146;PMS7003;61345;48.922;2.244;2023-03-01T00:33:54;15.25;12.25;8.50
73146;PMS7003;61345;48.922;2.244;2023-03-01T00:36:25;17.75;12.00;8.00
73146;PMS7003;61345;48.922;2.244;2023-03-01T00:38:51;19.25;12.00;9.00
73146;PMS7003;61345;48.922;2.244;2023-03-01T00:41:17;15.25;10.50;7.50
73146;PMS7003;61345;48.922;2.244;2023-03-01T00:43:43;12.75;9.75;7.00
73146;PMS7003;61345;48.922;2.244;2023-03-01T00:46:11;15.00;12.00;9.00
73146;PMS7003;61345;48.922;2.244;2023-03-01T00:48:40;19.50;15.00;10.00
73146;PMS7003;61345;48.922;2.244;2023-03-01T00:51:07;14.00;11.50;8.50
73146;PMS7003;61345;48.922;2.244;2023-03-01T00:53:34;7.00;7.00;4.00
73146;PMS7003;61345;48.922;2.244;2023-03-01T00:55:59;20.25;12.25;9.00
73146;PMS7003;61345;48.922;2.244;2023-03-01T00:58:25;18.25;12.75;8.50
73146;PMS7003;61345;48.922;2.244;2023-03-01T01:00:50;19.00;12.00;8.00
73146;PMS7003;61345;48.922;2.244;2023-03-01T01:03:17;18.00;10.50;7.50
73146;PMS7003;61345;48.922;2.244;2023-03-01T01:05:42;20.00;13.75;9.00
73146;PMS7003;61345;48.922;2.244;2023-03-01T01:08:08;4.00;2.50;0.75
73146;PMS7003;61345;48.922;2.244;2023-03-01T01:10:34;13.75;11.00;8.50
73146;PMS7003;61345;48.922;2.244;2023-03-01T01:12:59;14.50;11.50;8.50
73146;PMS7003;61345;48.922;2.244;2023-03-01T01:15:25;14.50;12.00;8.50
73146;PMS7003;61345;48.922;2.244;2023-03-01T01:17:50;15.50;14.00;9.00
73146;PMS7003;61345;48.922;2.244;2023-03-01T01:20:15;15.00;12.00;8.50
73146;PMS7003;61345;48.922;2.244;2023-03-01T01:22:41;25.75;12.25;7.00
73146;PMS7003;61345;48.922;2.244;2023-03-01T01:25:06;21.25;14.50;8.50
73146;PMS7003;61345;48.922;2.244;2023-03-01T01:27:32;13.50;12.00;9.00
73146;PMS7003;61345;48.922;2.244;2023-03-01T01:29:57;13.00;9.25;6.75
73146;PMS7003;61345;48.922;2.244;2023-03-01T01:32:22;16.00;10.50;7.00
73146;PMS7003;61345;48.922;2.244;2023-03-01T01:34:48;19.00;13.00;9.25
73146;PMS7003;61345;48.922;2.244;2023-03-01T01:37:13;10.50;6.50;4.00
73146;PMS7003;61345;48.922;2.244;2023-03-01T01:39:38;25.25;12.75;8.50
73146;PMS7003;61345;48.922;2.244;2023-03-01T01:42:04;11.75;7.50;4.50
73146;PMS7003;61345;48.922;2.244;2023-03-01T01:44:29;18.25;10.75;7.00
73146;PMS7003;61345;48.922;2.244;2023-03-01T01:49:35;18.50;15.00;9.75
73146;PMS7003;61345;48.922;2.244;2023-03-01T01:52:14;19.25;10.50;8.00
73146;PMS7003;61345;48.922;2.244;2023-03-01T01:54:50;15.00;10.00;7.00
73146;PMS7003;61345;48.922;2.244;2023-03-01T01:57:30;17.50;9.25;7.00
73146;PMS7003;61345;48.922;2.244;2023-03-01T01:59:59;15.00;12.75;9.75
73146;PMS7003;61345;48.922;2.244;2023-03-01T02:02:28;20.25;13.00;9.00
73146;PMS7003;61345;48.922;2.244;2023-03-01T02:04:56;15.00;12.25;9.00
73146;PMS7003;61345;48.922;2.244;2023-03-01T02:07:28;16.50;12.50;9.00
73146;PMS7003;61345;48.922;2.244;2023-03-01T02:09:55;12.50;12.00;9.00
73146;PMS7003;61345;48.922;2.244;2023-03-01T02:12:21;14.00;11.50;8.00
73146;PMS7003;61345;48.922;2.244;2023-03-01T02:14:49;14.00;11.00;7.00
73146;PMS7003;61345;48.922;2.244;2023-03-01T02:17:15;21.25;12.25;9.00
73146;PMS7003;61345;48.922;2.244;2023-03-01T02:22:32;16.25;13.50;9.25
73146;PMS7003;61345;48.922;2.244;2023-03-01T02:25:07;14.00;10.25;8.00
73146;PMS7003;61345;48.922;2.244;2023-03-01T02:30:25;15.00;10.00;7.00
73146;PMS7003;61345;48.922;2.244;2023-03-01T02:32:53;17.00;15.00;9.00
73146;PMS7003;61345;48.922;2.244;2023-03-01T02:35:19;10.50;7.00;6.00
73146;PMS7003;61345;48.922;2.244;2023-03-01T02:37:45;13.50;11.25;7.50
73146;PMS7003;61345;48.922;2.244;2023-03-01T02:40:13;12.75;12.00;9.00
73146;PMS7003;61345;48.922;2.244;2023-03-01T02:42:47;12.50;9.00;7.00
73146;PMS7003;61345;48.922;2.244;2023-03-01T02:45:15;18.00;11.50;9.00
73146;PMS7003;61345;48.922;2.244;2023-03-01T02:47:40;18.25;12.00;9.00
73146;PMS7003;61345;48.922;2.244;2023-03-01T02:50:21;18.50;10.50;7.00
73146;PMS7003;61345;48.922;2.244;2023-03-01T02:53:11;15.00;10.00;7.00
73146;PMS7003;61345;48.922;2.244;2023-03-01T02:55:40;17.50;12.00;9.75
73146;PMS7003;61345;48.922;2.244;2023-03-01T02:58:06;16.50;12.50;9.00
73146;PMS7003;61345;48.922;2.244;2023-03-01T03:00:33;23.50;11.50;10.00
73146;PMS7003;61345;48.922;2.244;2023-03-01T03:03:04;21.00;14.50;10.00
73146;PMS7003;61345;48.922;2.244;2023-03-01T03:05:31;12.00;9.50;7.50
73146;PMS7003;61345;48.922;2.244;2023-03-01T03:07:57;17.00;10.00;7.00
73146;PMS7003;61345;48.922;2.244;2023-03-01T03:10:24;27.75;15.00;9.00
73146;PMS7003;61345;48.922;2.244;2023-03-01T03:13:13;16.00;12.50;9.00
73146;PMS7003;61345;48.922;2.244;2023-03-01T03:15:39;18.25;9.50;6.75
73146;PMS7003;61345;48.922;2.244;2023-03-01T03:18:07;15.00;11.50;7.00
73146;PMS7003;61345;48.922;2.244;2023-03-01T03:20:34;20.00;12.00;9.25
73146;PMS7003;61345;48.922;2.244;2023-03-01T03:23:00;12.50;7.50;6.50
73146;PMS7003;61345;48.922;2.244;2023-03-01T03:25:26;14.00;9.50;6.00
73146;PMS7003;61345;48.922;2.244;2023-03-01T03:27:53;17.50;13.00;9.00
73146;PMS7003;61345;48.922;2.244;2023-03-01T03:30:21;13.00;10.00;9.00
73146;PMS7003;61345;48.922;2.244;2023-03-01T03:32:48;16.25;11.25;9.25
73146;PMS7003;61345;48.922;2.244;2023-03-01T03:35:20;18.75;13.00;7.00
73146;PMS7003;61345;48.922;2.244;2023-03-01T03:37:50;16.25;12.50;7.00
73146;PMS7003;61345;48.922;2.244;2023-03-01T03:40:38;18.00;12.50;9.00
73146;PMS7003;61345;48.922;2.244;2023-03-01T03:43:06;14.00;12.00;7.00
73146;PMS7003;61345;48.922;2.244;2023-03-01T03:45:32;11.75;11.75;9.00
73146;PMS7003;61345;48.922;2.244;2023-03-01T03:47:58;18.00;11.50;7.50
73146;PMS7003;61345;48.922;2.244;2023-03-01T03:50:24;14.50;11.50;7.50
73146;PMS7003;61345;48.922;2.244;2023-03-01T03:52:50;17.00;12.75;9.25
73146;PMS7003;61345;48.922;2.244;2023-03-01T03:55:15;18.25;12.75;9.25
73146;PMS7003;61345;48.922;2.244;2023-03-01T03:57:44;15.25;7.00;6.00
73146;PMS7003;61345;48.922;2.244;2023-03-01T04:00:16;21.75;12.00;9.25
73146;PMS7003;61345;48.922;2.244;2023-03-01T04:02:43;18.75;12.25;9.00
73146;PMS7003;61345;48.922;2.244;2023-03-01T04:05:10;18.75;12.50;8.00
73146;PMS7003;61345;48.922;2.244;2023-03-01T04:07:37;22.75;16.00;10.00
73146;PMS7003;61345;48.922;2.244;2023-03-01T04:10:03;18.75;10.00;7.50
73146;PMS7003;61345;48.922;2.244;2023-03-01T04:12:29;23.00;15.00;10.50
73146;PMS7003;61345;48.922;2.244;2023-03-01T04:14:55;9.00;4.00;2.50
73146;PMS7003;61345;48.922;2.244;2023-03-01T04:17:21;26.50;13.00;9.50
73146;PMS7003;61345;48.922;2.244;2023-03-01T04:19:47;15.00;13.00;9.00
73146;PMS7003;61345;48.922;2.244;2023-03-01T04:22:13;21.50;16.00;10.00
73146;PMS7003;61345;48.922;2.244;2023-03-01T04:24:42;15.00;13.25;9.50
73146;PMS7003;61345;48.922;2.244;2023-03-01T04:27:08;19.25;14.50;11.50
73146;PMS7003;61345;48.922;2.244;2023-03-01T04:29:34;15.25;12.00;8.50
73146;PMS7003;61345;48.922;2.244;2023-03-01T04:31:59;17.25;15.25;9.00
73146;PMS7003;61345;48.922;2.244;2023-03-01T04:34:24;25.50;13.50;10.00
73146;PMS7003;61345;48.922;2.244;2023-03-01T04:36:51;17.25;14.00;9.00
73146;PMS7003;61345;48.922;2.244;2023-03-01T04:39:17;15.50;11.50;7.00
73146;PMS7003;61345;48.922;2.244;2023-03-01T04:41:42;17.50;14.25;9.50
73146;PMS7003;61345;48.922;2.244;2023-03-01T04:44:08;15.25;9.25;6.75
73146;PMS7003;61345;48.922;2.244;2023-03-01T04:46:34;12.00;12.00;9.00
73146;PMS7003;61345;48.922;2.244;2023-03-01T04:49:00;15.25;12.00;9.00
73146;PMS7003;61345;48.922;2.244;2023-03-01T04:51:25;15.75;12.75;9.50
73146;PMS7003;61345;48.922;2.244;2023-03-01T04:53:50;23.00;15.75;10.00
73146;PMS7003;61345;48.922;2.244;2023-03-01T04:56:16;18.75;14.00;9.00
73146;PMS7003;61345;48.922;2.244;2023-03-01T04:58:44;20.25;17.50;11.50
73146;PMS7003;61345;48.922;2.244;2023-03-01T05:01:14;16.25;12.50;9.25
73146;PMS7003;61345;48.922;2.244;2023-03-01T05:03:46;15.50;11.50;8.50
73146;PMS7003;61345;48.922;2.244;2023-03-01T05:06:12;27.50;15.00;10.00
73146;PMS7003;61345;48.922;2.244;2023-03-01T05:08:38;17.25;13.50;9.00
73146;PMS7003;61345;48.922;2.244;2023-03-01T05:11:04;17.00;13.50;9.75
73146;PMS7003;61345;48.922;2.244;2023-03-01T05:13:30;21.00;16.50;10.50
73146;PMS7003;61345;48.922;2.244;2023-03-01T05:15:56;14.50;14.00;10.00
73146;PMS7003;61345;48.922;2.244;2023-03-01T05:18:23;20.00;14.50;9.50
73146;PMS7003;61345;48.922;2.244;2023-03-01T05:20:51;26.00;17.75;11.00
73146;PMS7003;61345;48.922;2.244;2023-03-01T05:23:17;22.00;13.50;9.75
73146;PMS7003;61345;48.922;2.244;2023-03-01T05:25:43;17.50;14.00;9.50
73146;PMS7003;61345;48.922;2.244;2023-03-01T05:28:12;11.25;10.00;6.75
73146;PMS7003;61345;48.922;2.244;2023-03-01T05:30:38;18.50;15.00;11.00
73146;PMS7003;61345;48.922;2.244;2023-03-01T05:33:07;23.75;20.00;12.75
73146;PMS7003;61345;48.922;2.244;2023-03-01T05:35:38;25.25;17.00;11.00
73146;PMS7003;61345;48.922;2.244;2023-03-01T05:38:04;21.25;15.00;12.00
73146;PMS7003;61345;48.922;2.244;2023-03-01T05:40:32;19.00;12.00;9.00
73146;PMS7003;61345;48.922;2.244;2023-03-01T05:42:58;19.00;16.00;10.00
73146;PMS7003;61345;48.922;2.244;2023-03-01T05:45:24;31.50;12.50;9.50
73146;PMS7003;61345;48.922;2.244;2023-03-01T05:47:50;20.75;15.50;10.00
73146;PMS7003;61345;48.922;2.244;2023-03-01T05:50:23;30.00;17.00;9.75
73146;PMS7003;61345;48.922;2.244;2023-03-01T05:52:51;23.50;17.00;10.00
73146;PMS7003;61345;48.922;2.244;2023-03-01T05:55:24;24.25;15.75;11.50
73146;PMS7003;61345;48.922;2.244;2023-03-01T05:57:50;17.50;12.00;9.25
73146;PMS7003;61345;48.922;2.244;2023-03-01T06:00:16;20.25;16.25;10.50
73146;PMS7003;61345;48.922;2.244;2023-03-01T06:02:44;30.75;21.50;14.00
73146;PMS7003;61345;48.922;2.244;2023-03-01T06:05:10;25.25;20.50;12.00
73146;PMS7003;61345;48.922;2.244;2023-03-01T06:07:36;24.00;16.00;12.25
73146;PMS7003;61345;48.922;2.244;2023-03-01T06:10:02;24.25;18.50;12.25
73146;PMS7003;61345;48.922;2.244;2023-03-01T06:12:32;26.00;18.50;12.75
73146;PMS7003;61345;48.922;2.244;2023-03-01T06:14:58;21.75;16.00;10.50
73146;PMS7003;61345;48.922;2.244;2023-03-01T06:17:24;22.00;16.50;10.50
73146;PMS7003;61345;48.922;2.244;2023-03-01T06:19:49;22.00;17.00;12.00
73146;PMS7003;61345;48.922;2.244;2023-03-01T06:22:15;28.00;21.00;13.00
73146;PMS7003;61345;48.922;2.244;2023-03-01T06:24:40;27.00;21.50;12.50
73146;PMS7003;61345;48.922;2.244;2023-03-01T06:27:05;22.50;20.00;14.00
73146;PMS7003;61345;48.922;2.244;2023-03-01T06:29:31;27.50;22.50;15.00
73146;PMS7003;61345;48.922;2.244;2023-03-01T06:31:56;21.50;20.00;12.75
73146;PMS7003;61345;48.922;2.244;2023-03-01T06:34:21;28.75;21.00;13.00
73146;PMS7003;61345;48.922;2.244;2023-03-01T06:36:47;38.25;22.00;13.50
73146;PMS7003;61345;48.922;2.244;2023-03-01T06:39:12;30.00;21.25;14.00
73146;PMS7003;61345;48.922;2.244;2023-03-01T06:41:37;25.50;19.50;13.00
73146;PMS7003;61345;48.922;2.244;2023-03-01T06:44:03;32.50;24.50;15.75
73146;PMS7003;61345;48.922;2.244;2023-03-01T06:46:28;20.50;20.00;13.50
73146;PMS7003;61345;48.922;2.244;2023-03-01T06:48:53;31.75;21.00;15.00
73146;PMS7003;61345;48.922;2.244;2023-03-01T06:51:19;25.50;19.50;13.50
73146;PMS7003;61345;48.922;2.244;2023-03-01T06:53:45;29.00;24.25;15.00
73146;PMS7003;61345;48.922;2.244;2023-03-01T06:56:11;32.00;24.00;15.25
73146;PMS7003;61345;48.922;2.244;2023-03-01T06:58:36;34.75;24.25;16.25
73146;PMS7003;61345;48.922;2.244;2023-03-01T07:01:05;34.25;24.50;17.75
73146;PMS7003;61345;48.922;2.244;2023-03-01T07:03:31;25.50;20.25;13.00
73146;PMS7003;61345;48.922;2.244;2023-03-01T07:05:56;31.25;24.00;15.00
73146;PMS7003;61345;48.922;2.244;2023-03-01T07:08:22;36.50;23.50;15.25
73146;PMS7003;61345;48.922;2.244;2023-03-01T07:10:47;27.00;21.25;12.50
73146;PMS7003;61345;48.922;2.244;2023-03-01T07:13:12;40.75;24.00;16.00
73146;PMS7003;61345;48.922;2.244;2023-03-01T07:15:39;36.25;26.50;15.75
73146;PMS7003;61345;48.922;2.244;2023-03-01T07:18:05;29.25;22.00;14.00
73146;PMS7003;61345;48.922;2.244;2023-03-01T07:20:30;29.50;23.00;15.25
73146;PMS7003;61345;48.922;2.244;2023-03-01T07:22:55;30.75;22.50;15.25
73146;PMS7003;61345;48.922;2.244;2023-03-01T07:25:23;24.75;24.50;18.00
73146;PMS7003;61345;48.922;2.244;2023-03-01T07:27:52;40.25;28.00;20.00
73146;PMS7003;61345;48.922;2.244;2023-03-01T07:30:18;30.00;24.25;15.25
73146;PMS7003;61345;48.922;2.244;2023-03-01T07:32:44;31.25;25.00;18.00
73146;PMS7003;61345;48.922;2.244;2023-03-01T07:35:10;46.00;28.00;17.00
73146;PMS7003;61345;48.922;2.244;2023-03-01T07:37:35;41.25;30.00;21.25
73146;PMS7003;61345;48.922;2.244;2023-03-01T07:40:01;34.50;27.50;19.00
73146;PMS7003;61345;48.922;2.244;2023-03-01T07:42:26;39.00;31.00;20.50
73146;PMS7003;61345;48.922;2.244;2023-03-01T07:44:52;33.50;26.00;18.00
73146;PMS7003;61345;48.922;2.244;2023-03-01T07:47:17;25.75;23.50;16.00
73146;PMS7003;61345;48.922;2.244;2023-03-01T07:49:42;33.75;24.50;18.25
73146;PMS7003;61345;48.922;2.244;2023-03-01T07:52:09;32.75;21.75;15.00
73146;PMS7003;61345;48.922;2.244;2023-03-01T07:54:36;34.00;22.00;17.00
73146;PMS7003;61345;48.922;2.244;2023-03-01T07:57:01;33.75;24.25;17.00
73146;PMS7003;61345;48.922;2.244;2023-03-01T07:59:27;32.25;26.50;13.00
73146;PMS7003;61345;48.922;2.244;2023-03-01T08:01:54;36.00;26.00;18.00
73146;PMS7003;61345;48.922;2.244;2023-03-01T08:04:22;38.75;27.25;18.50
73146;PMS7003;61345;48.922;2.244;2023-03-01T08:06:49;34.75;24.25;15.75
73146;PMS7003;61345;48.922;2.244;2023-03-01T08:09:15;38.50;25.25;18.50
73146;PMS7003;61345;48.922;2.244;2023-03-01T08:11:41;42.75;29.25;20.00
73146;PMS7003;61345;48.922;2.244;2023-03-01T08:14:06;26.75;20.00;15.75
73146;PMS7003;61345;48.922;2.244;2023-03-01T08:16:31;31.00;25.50;17.00
73146;PMS7003;61345;48.922;2.244;2023-03-01T08:19:02;27.75;16.25;10.50
73146;PMS7003;61345;48.922;2.244;2023-03-01T08:21:31;33.75;26.25;17.50
73146;PMS7003;61345;48.922;2.244;2023-03-01T08:23:57;34.25;26.75;18.75
73146;PMS7003;61345;48.922;2.244;2023-03-01T08:26:22;33.25;27.00;18.00
73146;PMS7003;61345;48.922;2.244;2023-03-01T08:28:48;29.00;23.50;18.00
73146;PMS7003;61345;48.922;2.244;2023-03-01T08:33:42;38.00;24.50;16.50
73146;PMS7003;61345;48.922;2.244;2023-03-01T08:36:07;33.00;27.00;18.25
73146;PMS7003;61345;48.922;2.244;2023-03-01T08:38:33;29.00;23.00;16.00
73146;PMS7003;61345;48.922;2.244;2023-03-01T08:41:00;29.25;21.00;15.00
73146;PMS7003;61345;48.922;2.244;2023-03-01T08:43:26;32.00;25.50;15.50
73146;PMS7003;61345;48.922;2.244;2023-03-01T08:45:51;34.50;23.50;17.50
73146;PMS7003;61345;48.922;2.244;2023-03-01T08:48:17;38.50;27.75;19.00
73146;PMS7003;61345;48.922;2.244;2023-03-01T08:50:42;37.50;26.00;19.00
73146;PMS7003;61345;48.922;2.244;2023-03-01T08:53:07;33.50;28.00;21.00
73146;PMS7003;61345;48.922;2.244;2023-03-01T08:55:33;29.00;24.25;16.50
73146;PMS7003;61345;48.922;2.244;2023-03-01T08:57:59;37.50;29.00;18.25
73146;PMS7003;61345;48.922;2.244;2023-03-01T09:00:24;31.50;22.50;16.00
73146;PMS7003;61345;48.922;2.244;2023-03-01T09:02:50;32.00;27.50;17.00
73146;PMS7003;61345;48.922;2.244;2023-03-01T09:05:15;26.00;22.00;14.75
73146;PMS7003;61345;48.922;2.244;2023-03-01T09:07:40;39.50;23.00;15.00
73146;PMS7003;61345;48.922;2.244;2023-03-01T09:10:06;32.50;25.50;16.00
73146;PMS7003;61345;48.922;2.244;2023-03-01T09:12:31;29.00;19.75;14.50
73146;PMS7003;61345;48.922;2.244;2023-03-01T09:14:57;28.25;23.00;16.00
73146;PMS7003;61345;48.922;2.244;2023-03-01T09:17:22;35.50;25.50;16.00
73146;PMS7003;61345;48.922;2.244;2023-03-01T09:19:47;26.50;21.00;15.00
73146;PMS7003;61345;48.922;2.244;2023-03-01T09:22:13;32.50;26.00;17.50
73146;PMS7003;61345;48.922;2.244;2023-03-01T09:24:38;35.75;24.75;16.00
73146;PMS7003;61345;48.922;2.244;2023-03-01T09:27:05;28.50;20.00;13.50
73146;PMS7003;61345;48.922;2.244;2023-03-01T09:29:33;37.50;27.00;16.50
73146;PMS7003;61345;48.922;2.244;2023-03-01T09:32:00;26.75;22.50;15.50
73146;PMS7003;61345;48.922;2.244;2023-03-01T09:34:25;35.00;29.75;18.75
73146;PMS7003;61345;48.922;2.244;2023-03-01T09:36:51;39.00;27.00;19.00
73146;PMS7003;61345;48.922;2.244;2023-03-01T09:39:16;33.00;26.25;15.50
73146;PMS7003;61345;48.922;2.244;2023-03-01T09:41:59;38.00;28.50;16.00
73146;PMS7003;61345;48.922;2.244;2023-03-01T09:44:38;29.75;24.00;15.25
73146;PMS7003;61345;48.922;2.244;2023-03-01T09:47:21;32.00;23.50;16.75
73146;PMS7003;61345;48.922;2.244;2023-03-01T09:50:01;21.25;17.25;12.00
73146;PMS7003;61345;48.922;2.244;2023-03-01T09:55:43;30.00;23.00;14.50
73146;PMS7003;61345;48.922;2.244;2023-03-01T09:58:28;31.50;25.50;16.75
73146;PMS7003;61345;48.922;2.244;2023-03-01T10:03:39;27.00;21.25;16.25
73146;PMS7003;61345;48.922;2.244;2023-03-01T10:06:10;32.75;24.25;14.75
73146;PMS7003;61345;48.922;2.244;2023-03-01T10:08:47;34.00;22.50;16.25
73146;PMS7003;61345;48.922;2.244;2023-03-01T10:11:26;29.25;24.75;14.25
73146;PMS7003;61345;48.922;2.244;2023-03-01T10:13:55;29.00;23.25;16.00
73146;PMS7003;61345;48.922;2.244;2023-03-01T10:19:57;23.25;21.50;14.25
73146;PMS7003;61345;48.922;2.244;2023-03-01T10:22:45;36.75;23.25;16.00
73146;PMS7003;61345;48.922;2.244;2023-03-01T10:25:15;32.75;25.00;16.25
73146;PMS7003;61345;48.922;2.244;2023-03-01T10:27:46;23.50;22.50;16.00
73146;PMS7003;61345;48.922;2.244;2023-03-01T10:35:46;31.50;24.50;14.50
73146;PMS7003;61345;48.922;2.244;2023-03-01T10:38:12;41.25;22.00;14.75
73146;PMS7003;61345;48.922;2.244;2023-03-01T10:43:46;30.25;22.75;15.75
73146;PMS7003;61345;48.922;2.244;2023-03-01T10:49:18;33.75;24.25;16.00
73146;PMS7003;61345;48.922;2.244;2023-03-01T10:51:45;37.25;24.00;16.50
73146;PMS7003;61345;48.922;2.244;2023-03-01T10:54:16;34.25;23.75;16.25
73146;PMS7003;61345;48.922;2.244;2023-03-01T10:56:53;27.00;20.75;14.75
73146;PMS7003;61345;48.922;2.244;2023-03-01T10:59:27;29.00;20.75;15.25
73146;PMS7003;61345;48.922;2.244;2023-03-01T11:04:46;30.00;20.00;14.50
73146;PMS7003;61345;48.922;2.244;2023-03-01T11:07:21;31.25;21.75;14.25
73146;PMS7003;61345;48.922;2.244;2023-03-01T11:09:46;34.50;24.75;16.75
73146;PMS7003;61345;48.922;2.244;2023-03-01T11:12:15;32.25;26.50;16.75
73146;PMS7003;61345;48.922;2.244;2023-03-01T11:14:48;26.00;21.50;15.00
73146;PMS7003;61345;48.922;2.244;2023-03-01T11:17:18;35.50;20.25;15.75
73146;PMS7003;61345;48.922;2.244;2023-03-01T11:20:02;35.50;26.50;15.75
73146;PMS7003;61345;48.922;2.244;2023-03-01T11:22:35;23.75;19.00;14.25
73146;PMS7003;61345;48.922;2.244;2023-03-01T11:25:00;41.00;22.25;12.50
73146;PMS7003;61345;48.922;2.244;2023-03-01T11:27:28;32.25;22.00;15.00
73146;PMS7003;61345;48.922;2.244;2023-03-01T11:30:02;26.00;21.25;13.75
73146;PMS7003;61345;48.922;2.244;2023-03-01T11:32:34;36.00;25.75;15.00
73146;PMS7003;61345;48.922;2.244;2023-03-01T11:40:37;33.75;22.00;14.00
73146;PMS7003;61345;48.922;2.244;2023-03-01T12:03:31;40.25;26.00;15.00
73146;PMS7003;61345;48.922;2.244;2023-03-01T12:11:29;33.75;23.00;16.00
73146;PMS7003;61345;48.922;2.244;2023-03-01T12:14:04;27.00;20.75;14.00
73146;PMS7003;61345;48.922;2.244;2023-03-01T12:17:02;21.75;18.75;14.25
73146;PMS7003;61345;48.922;2.244;2023-03-01T12:19:56;31.00;24.25;16.75
73146;PMS7003;61345;48.922;2.244;2023-03-01T12:25:06;25.75;19.00;11.50
73146;PMS7003;61345;48.922;2.244;2023-03-01T12:30:39;26.75;20.75;14.25
73146;PMS7003;61345;48.922;2.244;2023-03-01T12:33:25;25.50;22.00;14.00
73146;PMS7003;61345;48.922;2.244;2023-03-01T12:52:42;21.25;17.50;12.00
73146;PMS7003;61345;48.922;2.244;2023-03-01T12:55:29;26.50;21.25;14.75
73146;PMS7003;61345;48.922;2.244;2023-03-01T13:01:39;28.50;21.25;12.75
73146;PMS7003;61345;48.922;2.244;2023-03-01T13:04:18;21.75;18.75;12.00
73146;PMS7003;61345;48.922;2.244;2023-03-01T13:11:55;32.25;22.50;14.00
73146;PMS7003;61345;48.922;2.244;2023-03-01T13:16:46;28.75;22.50;16.00
73146;PMS7003;61345;48.922;2.244;2023-03-01T13:19:17;25.75;22.00;15.50
73146;PMS7003;61345;48.922;2.244;2023-03-01T13:21:44;29.00;22.75;16.25
73146;PMS7003;61345;48.922;2.244;2023-03-01T13:30:12;18.50;15.25;13.00
73146;PMS7003;61345;48.922;2.244;2023-03-01T13:32:31;23.00;18.50;14.00
73146;PMS7003;61345;48.922;2.244;2023-03-01T13:34:59;19.75;14.50;12.00
73146;PMS7003;61345;48.922;2.244;2023-03-01T13:37:27;21.25;17.00;12.00
73146;PMS7003;61345;48.922;2.244;2023-03-01T13:39:54;28.00;20.50;15.00
73146;PMS7003;61345;48.922;2.244;2023-03-01T13:42:30;23.25;18.50;14.75
73146;PMS7003;61345;48.922;2.244;2023-03-01T13:44:57;22.25;18.75;14.25
73146;PMS7003;61345;48.922;2.244;2023-03-01T13:47:22;18.75;17.00;10.75
73146;PMS7003;61345;48.922;2.244;2023-03-01T13:49:49;20.75;18.50;13.50
73146;PMS7003;61345;48.922;2.244;2023-03-01T13:54:59;21.75;16.75;12.00
73146;PMS7003;61345;48.922;2.244;2023-03-01T13:57:28;27.00;21.75;15.25
73146;PMS7003;61345;48.922;2.244;2023-03-01T13:59:58;17.50;16.50;11.00
73146;PMS7003;61345;48.922;2.244;2023-03-01T14:02:23;17.25;13.25;10.75
73146;PMS7003;61345;48.922;2.244;2023-03-01T14:04:58;19.75;15.00;11.50
73146;PMS7003;61345;48.922;2.244;2023-03-01T14:07:24;21.25;19.00;14.00
73146;PMS7003;61345;48.922;2.244;2023-03-01T14:09:52;23.75;18.50;14.00
73146;PMS7003;61345;48.922;2.244;2023-03-01T14:20:38;24.00;18.75;14.75
73146;PMS7003;61345;48.922;2.244;2023-03-01T14:23:13;18.00;17.75;14.25
73146;PMS7003;61345;48.922;2.244;2023-03-01T14:25:48;22.75;19.75;13.50
73146;PMS7003;61345;48.922;2.244;2023-03-01T14:28:27;27.00;22.75;16.75
73146;PMS7003;61345;48.922;2.244;2023-03-01T14:30:54;23.50;20.00;14.00
73146;PMS7003;61345;48.922;2.244;2023-03-01T14:38:21;23.00;18.25;12.00
73146;PMS7003;61345;48.922;2.244;2023-03-01T14:40:59;25.00;20.25;15.50
73146;PMS7003;61345;48.922;2.244;2023-03-01T14:43:28;25.75;20.50;13.50
73146;PMS7003;61345;48.922;2.244;2023-03-01T14:45:55;23.00;19.25;14.00
73146;PMS7003;61345;48.922;2.244;2023-03-01T14:48:20;25.25;21.25;13.00
73146;PMS7003;61345;48.922;2.244;2023-03-01T14:50:46;26.75;22.00;15.50
73146;PMS7003;61345;48.922;2.244;2023-03-01T14:53:22;23.00;17.00;12.00
73146;PMS7003;61345;48.922;2.244;2023-03-01T14:55:50;21.00;17.50;13.75
73146;PMS7003;61345;48.922;2.244;2023-03-01T14:58:19;26.25;19.75;15.00
73146;PMS7003;61345;48.922;2.244;2023-03-01T15:00:49;25.50;22.00;14.75
73146;PMS7003;61345;48.922;2.244;2023-03-01T15:03:20;25.50;19.00;13.00
73146;PMS7003;61345;48.922;2.244;2023-03-01T15:05:48;20.75;16.00;12.25
73146;PMS7003;61345;48.922;2.244;2023-03-01T15:08:16;23.50;19.00;14.75
73146;PMS7003;61345;48.922;2.244;2023-03-01T15:10:55;21.00;17.25;13.50
73146;PMS7003;61345;48.922;2.244;2023-03-01T15:13:41;26.25;19.00;13.25
73146;PMS7003;61345;48.922;2.244;2023-03-01T15:16:07;20.00;18.75;13.25
73146;PMS7003;61345;48.922;2.244;2023-03-01T15:18:35;21.25;19.50;14.00
73146;PMS7003;61345;48.922;2.244;2023-03-01T15:21:08;25.50;19.00;14.75
73146;PMS7003;61345;48.922;2.244;2023-03-01T15:23:39;24.75;18.50;13.50
73146;PMS7003;61345;48.922;2.244;2023-03-01T15:26:05;22.00;18.75;14.00
73146;PMS7003;61345;48.922;2.244;2023-03-01T15:28:34;21.00;18.00;13.00
73146;PMS7003;61345;48.922;2.244;2023-03-01T15:31:26;20.50;17.75;13.00
73146;PMS7003;61345;48.922;2.244;2023-03-01T15:33:51;27.50;17.25;13.00
73146;PMS7003;61345;48.922;2.244;2023-03-01T15:39:23;22.50;18.75;13.00
73146;PMS7003;61345;48.922;2.244;2023-03-01T15:42:02;35.50;27.75;20.00
73146;PMS7003;61345;48.922;2.244;2023-03-01T15:44:46;20.00;14.75;13.50
73146;PMS7003;61345;48.922;2.244;2023-03-01T15:47:25;22.75;16.75;13.50
73146;PMS7003;61345;48.922;2.244;2023-03-01T15:49:53;31.25;20.50;14.00
73146;PMS7003;61345;48.922;2.244;2023-03-01T15:52:24;30.00;25.25;16.00
73146;PMS7003;61345;48.922;2.244;2023-03-01T15:55:01;19.00;16.75;11.00
73146;PMS7003;61345;48.922;2.244;2023-03-01T15:57:28;28.25;20.50;14.50
73146;PMS7003;61345;48.922;2.244;2023-03-01T15:59:54;26.50;22.25;14.50
73146;PMS7003;61345;48.922;2.244;2023-03-01T16:02:20;30.50;24.00;15.00
73146;PMS7003;61345;48.922;2.244;2023-03-01T16:04:47;28.00;21.25;15.00